Time;durP1;ratioP1;P1;durP2;ratioP2;P2;SDS_P1;SDS_P2;PMS_P1;PMS_P2;Temp;Humidity;BMP_temperature;BMP_pressure;BME280_temperature;BME280_humidity;BME280_pressure;Samples;Min_cycle;Max_cycle;Signal;HPM_P1;HPM_P2
2023/01/08 00:00:51;;;;;;;10.07;5.20;;;;;;;-10.52;100.00;99759.91;5137772;27;20047;-63
2023/01/08 00:03:17;;;;;;;16.13;6.53;;;;;;;-10.67;100.00;99679.88;5137405;28;20133;-59
2023/01/08 00:05:44;;;;;;;14.50;5.72;;;;;;;-11.07;100.00;99627.16;5137807;28;20128;-64
2023/01/08 00:08:11;;;;;;;24.02;6.00;;;;;;;-11.07;100.00;99619.22;5137313;27;20316;-60
2023/01/08 00:10:38;;;;;;;16.55;5.45;;;;;;;-11.14;100.00;99616.59;5137538;28;20134;-62
2023/01/08 00:13:05;;;;;;;16.63;6.20;;;;;;;-11.10;100.00;99626.75;5137251;28;20412;-59
2023/01/08 00:15:32;;;;;;;7.07;3.97;;;;;;;-11.19;100.00;99634.16;5137091;28;20110;-60
2023/01/08 00:17:58;;;;;;;15.48;6.68;;;;;;;-11.09;100.00;99644.25;5137228;28;20047;-57
2023/01/08 00:20:25;;;;;;;8.38;5.00;;;;;;;-10.85;100.00;99645.38;5137332;28;20051;-63
2023/01/08 00:22:52;;;;;;;14.07;5.47;;;;;;;-11.20;100.00;99612.16;5137522;28;20051;-62
2023/01/08 00:25:19;;;;;;;17.85;6.55;;;;;;;-11.25;100.00;99640.28;5137160;28;20051;-59
2023/01/08 00:27:45;;;;;;;10.60;5.45;;;;;;;-11.17;100.00;99659.38;5137457;27;20130;-63
2023/01/08 00:30:12;;;;;;;21.00;7.65;;;;;;;-10.68;100.00;99700.28;5136965;28;20062;-65
2023/01/08 00:32:39;;;;;;;13.32;6.00;;;;;;;-10.88;100.00;99664.34;5137615;27;20059;-62
2023/01/08 00:35:06;;;;;;;30.48;10.70;;;;;;;-10.71;100.00;99668.91;5140592;28;20051;-64
2023/01/08 00:37:32;;;;;;;17.10;7.82;;;;;;;-10.67;100.00;99682.53;5141103;28;20053;-62
2023/01/08 00:39:59;;;;;;;15.02;6.28;;;;;;;-10.54;100.00;99679.00;5140833;28;20042;-63
2023/01/08 00:42:25;;;;;;;20.38;7.72;;;;;;;-10.20;100.00;99664.41;5140555;28;20055;-62
2023/01/08 00:44:51;;;;;;;17.65;7.05;;;;;;;-10.22;100.00;99618.75;5140782;27;20051;-62
2023/01/08 00:47:18;;;;;;;22.75;7.20;;;;;;;-10.70;100.00;99558.44;5140652;28;20343;-61
2023/01/08 00:49:44;;;;;;;15.88;6.57;;;;;;;-10.88;100.00;99547.81;5140633;28;20043;-57
2023/01/08 00:52:11;;;;;;;13.80;6.68;;;;;;;-10.47;100.00;99574.53;5140510;28;20314;-62
2023/01/08 00:54:37;;;;;;;20.77;6.93;;;;;;;-10.58;100.00;99561.22;5140745;28;20334;-62
2023/01/08 00:57:04;;;;;;;18.08;5.82;;;;;;;-10.78;100.00;99556.06;5140279;28;20088;-57
2023/01/08 00:59:31;;;;;;;20.05;7.15;;;;;;;-10.70;100.00;99553.94;5140684;28;20053;-64
2023/01/08 01:01:57;;;;;;;16.20;6.55;;;;;;;-10.60;100.00;99547.34;5140187;28;20050;-57
2023/01/08 01:04:25;;;;;;;15.43;6.65;;;;;;;-10.59;100.00;99533.09;5140722;28;20073;-63
2023/01/08 01:06:51;;;;;;;19.23;7.15;;;;;;;-10.36;100.00;99529.78;5140178;28;20147;-60
2023/01/08 01:09:17;;;;;;;14.07;6.22;;;;;;;-10.29;100.00;99518.13;5140318;28;20069;-60
2023/01/08 01:11:44;;;;;;;18.58;7.07;;;;;;;-10.38;100.00;99487.63;5140375;27;20154;-62
2023/01/08 01:14:11;;;;;;;10.02;4.78;;;;;;;-10.59;100.00;99470.31;5139997;28;20086;-61
2023/01/08 01:16:38;;;;;;;19.55;7.07;;;;;;;-10.30;100.00;99484.66;5140150;27;20103;-60
2023/01/08 01:19:05;;;;;;;12.40;6.22;;;;;;;-10.70;100.00;99466.53;5139927;28;20051;-62
2023/01/08 01:21:32;;;;;;;12.75;6.40;;;;;;;-10.32;100.00;99489.41;5140024;27;20309;-56
2023/01/08 01:23:59;;;;;;;17.70;6.18;;;;;;;-10.39;100.00;99474.56;5139896;28;20043;-63
2023/01/08 01:26:26;;;;;;;18.50;7.20;;;;;;;-10.11;100.00;99474.84;5140462;27;20043;-57
2023/01/08 01:28:55;;;;;;;18.40;6.80;;;;;;;-10.53;100.00;99442.13;5139835;28;20075;-64
2023/01/08 01:31:23;;;;;;;12.68;5.10;;;;;;;-10.27;100.00;99452.41;5140150;28;20130;-64
2023/01/08 01:33:50;;;;;;;16.80;6.80;;;;;;;-10.54;100.00;99414.00;5139616;27;20058;-64
2023/01/08 01:36:19;;;;;;;11.90;5.47;;;;;;;-10.54;100.00;99430.72;5139941;28;20079;-61
2023/01/08 01:38:47;;;;;;;17.45;7.30;;;;;;;-10.53;100.00;99455.34;5139740;27;20087;-58
2023/01/08 01:41:22;;;;;;;15.32;5.97;;;;;;;-10.34;100.00;99477.38;5139593;28;20086;-64
2023/01/08 01:43:48;;;;;;;13.02;5.68;;;;;;;-10.59;100.00;99478.25;5139923;28;20149;-59
2023/01/08 01:46:25;;;;;;;16.10;8.05;;;;;;;-10.22;100.00;99512.72;5138865;27;20138;-64
2023/01/08 01:48:55;;;;;;;16.60;6.68;;;;;;;-10.35;100.00;99492.50;5139902;27;20080;-64
2023/01/08 01:51:25;;;;;;;21.88;7.05;;;;;;;-10.39;100.00;99496.63;5139422;28;20057;-61
2023/01/08 01:53:51;;;;;;;32.67;10.55;;;;;;;-10.30;100.00;99495.28;5139780;28;20123;-60
2023/01/08 01:56:17;;;;;;;25.83;8.75;;;;;;;-10.24;100.00;99504.16;5139350;28;20047;-62
2023/01/08 01:58:43;;;;;;;21.13;7.47;;;;;;;-9.86;100.00;99505.75;5139334;28;20112;-63
2023/01/08 02:01:10;;;;;;;20.52;8.90;;;;;;;-10.37;100.00;99483.13;5139638;28;20055;-59
2023/01/08 02:03:38;;;;;;;17.95;7.60;;;;;;;-10.07;100.00;99513.13;5139175;28;20047;-64
2023/01/08 02:06:15;;;;;;;20.13;6.18;;;;;;;-10.31;100.00;99482.25;5139584;28;20051;-61
2023/01/08 02:08:51;;;;;;;12.10;5.90;;;;;;;-10.07;100.00;99502.53;5139341;28;20047;-63
2023/01/08 02:11:23;;;;;;;10.60;5.05;;;;;;;-9.98;100.00;99473.88;5139580;27;20219;-61
2023/01/08 02:13:57;;;;;;;21.88;7.50;;;;;;;-10.22;100.00;99455.19;5139034;28;20059;-60
2023/01/08 02:16:29;;;;;;;12.05;5.85;;;;;;;-10.54;100.00;99451.91;5139484;27;20422;-64
2023/01/08 02:19:01;;;;;;;16.00;5.75;;;;;;;-10.41;100.00;99482.75;5139207;27;20142;-64
2023/01/08 02:21:35;;;;;;;14.90;7.45;;;;;;;-10.28;100.00;99500.38;5139201;28;20098;-56
2023/01/08 02:24:10;;;;;;;10.68;5.20;;;;;;;-10.36;100.00;99501.47;5139261;28;20062;-64
2023/01/08 02:26:38;;;;;;;14.32;6.72;;;;;;;-10.69;100.00;99486.72;5138889;28;20043;-64
2023/01/08 02:29:07;;;;;;;7.88;4.35;;;;;;;-10.48;100.00;99527.06;5139060;28;20082;-64
2023/01/08 02:31:35;;;;;;;15.95;6.75;;;;;;;-10.04;100.00;99576.34;5138737;28;20058;-65
2023/01/08 02:34:02;;;;;;;13.02;5.97;;;;;;;-10.19;100.00;99560.81;5139352;28;20059;-59
2023/01/08 02:36:33;;;;;;;17.45;6.47;;;;;;;-10.22;100.00;99555.13;5138842;28;20043;-64
2023/01/08 02:39:11;;;;;;;10.15;6.72;;;;;;;-10.44;100.00;99539.66;5139195;27;20086;-61
2023/01/08 02:41:56;;;;;;;11.57;5.25;;;;;;;-10.22;100.00;99560.44;5138729;28;20419;-64
2023/01/08 02:44:33;;;;;;;14.68;5.90;;;;;;;-10.07;100.00;99571.47;5138725;28;20054;-59
2023/01/08 02:47:01;;;;;;;21.88;8.10;;;;;;;-10.29;100.00;99565.84;5138968;28;20107;-60
2023/01/08 02:49:32;;;;;;;11.25;5.10;;;;;;;-10.29;100.00;99560.53;5138475;28;20139;-62
2023/01/08 02:52:01;;;;;;;12.80;4.95;;;;;;;-10.47;100.00;99563.94;5138964;28;20062;-61
2023/01/08 02:54:33;;;;;;;18.88;7.75;;;;;;;-10.13;100.00;99598.06;5138616;28;20055;-62
2023/01/08 02:57:05;;;;;;;11.73;5.70;;;;;;;-10.34;100.00;99572.81;5137729;27;20059;-64
2023/01/08 02:59:33;;;;;;;12.43;4.70;;;;;;;-10.12;100.00;99578.50;5138621;28;20047;-61
2023/01/08 03:02:01;;;;;;;14.70;7.03;;;;;;;-10.17;100.00;99576.47;5138454;28;20054;-63
2023/01/08 03:04:30;;;;;;;15.63;6.15;;;;;;;-10.58;100.00;99561.22;5138676;28;20047;-63
2023/01/08 03:06:57;;;;;;;26.88;8.00;;;;;;;-10.39;100.00;99597.34;5138452;28;20108;-58
2023/01/08 03:09:23;;;;;;;38.10;11.02;;;;;;;-9.77;100.00;99645.03;5138617;27;20133;-64
2023/01/08 03:11:56;;;;;;;26.02;8.70;;;;;;;-10.15;100.00;99614.19;5138269;28;20055;-62
2023/01/08 03:14:27;;;;;;;22.88;8.18;;;;;;;-10.20;100.00;99627.28;5138501;28;20051;-65
2023/01/08 03:16:58;;;;;;;26.45;8.57;;;;;;;-10.06;100.00;99631.47;5138088;28;20375;-64
2023/01/08 03:19:27;;;;;;;19.08;7.00;;;;;;;-10.11;100.00;99646.41;5138678;28;20050;-58
2023/01/08 03:21:55;;;;;;;24.98;9.25;;;;;;;-9.66;100.00;99668.19;5137932;28;20051;-61
2023/01/08 03:24:26;;;;;;;21.70;8.02;;;;;;;-9.69;100.00;99642.09;5138213;28;20123;-59
2023/01/08 03:26:57;;;;;;;14.45;6.60;;;;;;;-10.07;100.00;99621.88;5138479;28;20074;-61
2023/01/08 03:29:27;;;;;;;20.55;7.15;;;;;;;-9.78;100.00;99667.28;5137873;28;20176;-57
2023/01/08 03:31:59;;;;;;;14.35;5.82;;;;;;;-10.03;100.00;99643.44;5138213;28;20086;-64
2023/01/08 03:34:27;;;;;;;12.38;5.80;;;;;;;-9.96;100.00;99660.13;5137740;28;20043;-58
2023/01/08 03:36:57;;;;;;;17.67;5.97;;;;;;;-9.99;100.00;99665.88;5138258;27;20392;-56
2023/01/08 03:39:29;;;;;;;15.85;7.40;;;;;;;-10.10;100.00;99664.72;5137646;28;20047;-64
2023/01/08 03:41:59;;;;;;;23.08;7.40;;;;;;;-10.01;100.00;99676.69;5138184;27;20077;-64
2023/01/08 03:44:26;;;;;;;8.07;4.88;;;;;;;-10.16;100.00;99665.63;5137641;28;20520;-57
2023/01/08 03:46:54;;;;;;;18.17;7.55;;;;;;;-10.25;100.00;99685.47;5137626;28;20143;-64
2023/01/08 03:49:22;;;;;;;11.63;6.53;;;;;;;-10.01;100.00;99726.28;5138091;28;20043;-64
2023/01/08 03:51:49;;;;;;;14.38;6.70;;;;;;;-10.00;100.00;99734.00;5137505;28;20051;-61
2023/01/08 03:54:17;;;;;;;20.27;7.10;;;;;;;-9.99;100.00;99748.91;5137843;27;20047;-64
2023/01/08 03:56:44;;;;;;;15.63;6.57;;;;;;;-9.89;100.00;99766.19;5137753;28;20047;-62
2023/01/08 03:59:10;;;;;;;16.08;7.45;;;;;;;-10.08;100.00;99728.97;5137909;28;20316;-59
2023/01/08 04:01:38;;;;;;;13.02;5.35;;;;;;;-9.59;100.00;99737.13;5137477;28;20455;-61
2023/01/08 04:04:04;;;;;;;15.90;7.25;;;;;;;-9.76;100.00;99713.00;5137862;28;20312;-64
2023/01/08 04:06:31;;;;;;;18.15;7.22;;;;;;;-9.72;100.00;99692.97;5137589;28;20061;-65
2023/01/08 04:08:57;;;;;;;14.18;7.03;;;;;;;-9.87;100.00;99684.53;5137494;27;20368;-63
2023/01/08 04:11:23;;;;;;;15.68;5.15;;;;;;;-9.59;100.00;99694.66;5137234;28;20142;-58
2023/01/08 04:13:49;;;;;;;9.48;5.40;;;;;;;-10.07;100.00;99656.34;5137512;28;20047;-64
2023/01/08 04:16:16;;;;;;;21.80;6.40;;;;;;;-10.09;100.00;99684.94;5137445;27;20047;-57
2023/01/08 04:18:43;;;;;;;18.02;7.75;;;;;;;-9.93;100.00;99710.06;5137231;28;20055;-63
2023/01/08 04:21:10;;;;;;;14.68;6.47;;;;;;;-9.81;100.00;99728.75;5137327;28;20107;-63
2023/01/08 04:23:36;;;;;;;17.70;6.70;;;;;;;-9.65;100.00;99720.22;5137139;28;20409;-60
2023/01/08 04:26:04;;;;;;;23.23;8.13;;;;;;;-9.86;100.00;99696.75;5137504;28;20447;-64
2023/01/08 04:28:30;;;;;;;18.65;7.40;;;;;;;-9.69;100.00;99723.53;5137035;28;20047;-63
2023/01/08 04:30:56;;;;;;;19.25;8.98;;;;;;;-9.78;100.00;99746.91;5137314;28;20090;-56
2023/01/08 04:33:24;;;;;;;21.38;8.27;;;;;;;-9.74;100.00;99748.88;5136912;28;20317;-65
2023/01/08 04:35:51;;;;;;;16.98;6.57;;;;;;;-9.85;100.00;99752.25;5137351;27;20047;-64
2023/01/08 04:38:17;;;;;;;20.75;8.70;;;;;;;-9.66;100.00;99766.38;5136858;28;20078;-60
2023/01/08 04:40:43;;;;;;;24.52;8.18;;;;;;;-9.90;100.00;99768.00;5137096;28;20063;-65
2023/01/08 04:43:10;;;;;;;28.50;10.55;;;;;;;-9.66;100.00;99771.69;5137173;28;20055;-59
2023/01/08 04:45:36;;;;;;;15.50;6.85;;;;;;;-9.73;100.00;99776.22;5137062;28;20054;-64
2023/01/08 04:48:02;;;;;;;16.25;7.68;;;;;;;-9.84;100.00;99782.25;5137105;28;20057;-58
2023/01/08 04:50:28;;;;;;;18.88;7.95;;;;;;;-10.02;100.00;99772.41;5136717;28;20420;-62
2023/01/08 04:52:57;;;;;;;21.33;9.65;;;;;;;-9.81;100.00;99813.66;5137343;28;20062;-59
2023/01/08 04:55:24;;;;;;;18.67;6.40;;;;;;;-10.12;100.00;99812.66;5136732;28;20077;-60
2023/01/08 04:57:50;;;;;;;27.98;9.13;;;;;;;-9.63;100.00;99860.66;5137068;28;20112;-63
2023/01/08 05:00:17;;;;;;;19.50;8.40;;;;;;;-9.70;100.00;99860.72;5136684;28;20047;-58
2023/01/08 05:02:43;;;;;;;20.88;7.53;;;;;;;-9.54;100.00;99870.78;5137025;28;20047;-60
2023/01/08 05:05:09;;;;;;;23.02;9.07;;;;;;;-9.34;100.00;99865.31;5136552;28;20150;-60
2023/01/08 05:07:35;;;;;;;29.30;9.35;;;;;;;-9.68;100.00;99826.81;5137035;28;20067;-63
2023/01/08 05:10:03;;;;;;;17.85;7.40;;;;;;;-9.41;100.00;99842.53;5136798;28;20061;-61
2023/01/08 05:12:29;;;;;;;12.88;5.95;;;;;;;-9.67;100.00;99812.50;5136461;28;20047;-62
2023/01/08 05:14:55;;;;;;;14.13;6.03;;;;;;;-9.70;100.00;99812.94;5136461;28;20055;-61
2023/01/08 05:17:21;;;;;;;27.23;8.25;;;;;;;-9.57;100.00;99823.44;5136519;28;20074;-65
2023/01/08 05:19:47;;;;;;;25.23;8.55;;;;;;;-9.71;100.00;99827.25;5137384;27;20138;-60
2023/01/08 05:22:14;;;;;;;12.95;6.20;;;;;;;-9.86;100.00;99830.22;5139894;28;20058;-65
2023/01/08 05:24:40;;;;;;;21.40;9.07;;;;;;;-9.52;100.00;99886.53;5140047;27;20051;-57
2023/01/08 05:27:07;;;;;;;13.70;7.07;;;;;;;-9.58;100.00;99864.31;5139764;28;20150;-64
2023/01/08 05:29:33;;;;;;;20.05;7.78;;;;;;;-9.59;100.00;99856.56;5140205;28;20047;-58
2023/01/08 05:31:59;;;;;;;16.42;7.22;;;;;;;-9.53;100.00;99855.69;5139615;28;20047;-61
2023/01/08 05:34:26;;;;;;;23.70;8.18;;;;;;;-9.72;100.00;99850.31;5140160;28;20051;-62
2023/01/08 05:36:52;;;;;;;16.15;7.88;;;;;;;-9.60;100.00;99870.84;5139616;28;20458;-64
2023/01/08 05:39:19;;;;;;;20.17;8.23;;;;;;;-9.48;100.00;99882.41;5139676;28;20412;-56
2023/01/08 05:41:45;;;;;;;23.00;9.23;;;;;;;-9.69;100.00;99891.53;5139814;28;20384;-64
2023/01/08 05:44:12;;;;;;;28.10;9.35;;;;;;;-9.43;100.00;99909.09;5139756;28;20086;-60
2023/01/08 05:46:39;;;;;;;29.73;11.73;;;;;;;-9.21;100.00;99898.13;5139935;28;20051;-58
2023/01/08 05:49:05;;;;;;;25.17;9.98;;;;;;;-9.17;100.00;99878.84;5139436;28;20120;-65
2023/01/08 05:51:31;;;;;;;19.40;5.30;;;;;;;-9.61;100.00;99824.91;5139755;28;20134;-59
2023/01/08 05:53:58;;;;;;;16.15;7.57;;;;;;;-9.54;100.00;99838.13;5139465;28;20150;-65
2023/01/08 05:56:24;;;;;;;12.63;5.43;;;;;;;-9.82;100.00;99835.91;5139711;28;20142;-59
2023/01/08 05:58:53;;;;;;;14.38;6.88;;;;;;;-9.75;100.00;99890.56;5139193;28;20099;-65
2023/01/08 06:01:20;;;;;;;21.92;9.30;;;;;;;-9.74;100.00;99923.19;5139712;27;20141;-65
2023/01/08 06:03:46;;;;;;;24.98;8.65;;;;;;;-9.78;100.00;99938.75;5139127;28;20047;-61
2023/01/08 06:06:13;;;;;;;15.02;6.75;;;;;;;-9.50;100.00;99964.09;5139369;28;20123;-65
2023/01/08 06:08:39;;;;;;;15.63;7.53;;;;;;;-9.81;100.00;99951.63;5139176;28;20046;-63
2023/01/08 06:11:07;;;;;;;17.10;7.15;;;;;;;-9.48;100.00;99991.25;5139365;28;20127;-63
2023/01/08 06:13:34;;;;;;;25.23;8.50;;;;;;;-9.49;100.00;99977.16;5139372;27;20138;-61
2023/01/08 06:16:01;;;;;;;19.80;7.97;;;;;;;-9.71;100.00;99973.19;5138945;28;20055;-62
2023/01/08 06:18:29;;;;;;;14.35;7.35;;;;;;;-9.57;100.00;99989.84;5139258;28;20434;-64
2023/01/08 06:20:55;;;;;;;16.75;8.25;;;;;;;-9.62;100.00;100006.44;5138942;28;20138;-58
2023/01/08 06:23:21;;;;;;;32.90;8.70;;;;;;;-9.49;100.00;100040.88;5139223;28;20047;-63
2023/01/08 06:25:53;;;;;;;15.15;7.82;;;;;;;-9.67;100.00;100035.44;5138844;28;20061;-61
2023/01/08 06:28:19;;;;;;;19.48;7.18;;;;;;;-9.38;100.00;100067.78;5139348;28;20341;-61
2023/01/08 06:30:45;;;;;;;18.27;8.43;;;;;;;-9.30;100.00;100065.66;5138589;27;20074;-61
2023/01/08 06:33:13;;;;;;;23.38;8.10;;;;;;;-9.25;100.00;100073.81;5139001;28;20046;-62
2023/01/08 06:35:40;;;;;;;22.17;9.07;;;;;;;-9.30;100.00;100057.69;5138912;28;20047;-64
2023/01/08 06:38:06;;;;;;;17.45;8.20;;;;;;;-9.06;100.00;100052.69;5138924;28;20057;-59
2023/01/08 06:40:33;;;;;;;25.35;8.98;;;;;;;-9.34;100.00;100021.19;5138841;28;20078;-65
2023/01/08 06:43:01;;;;;;;25.40;8.25;;;;;;;-9.28;100.00;100025.63;5138545;28;20142;-61
2023/01/08 06:45:27;;;;;;;16.35;7.40;;;;;;;-9.68;100.00;100001.16;5138946;28;20062;-60
2023/01/08 06:47:53;;;;;;;24.33;8.32;;;;;;;-9.62;100.00;100043.59;5138520;28;20061;-57
2023/01/08 06:50:19;;;;;;;20.48;8.15;;;;;;;-9.75;100.00;100067.53;5138787;28;20063;-63
2023/01/08 06:52:53;;;;;;;25.55;9.07;;;;;;;-9.68;100.00;100102.81;5138476;28;20459;-63
2023/01/08 06:55:19;;;;;;;22.92;9.57;;;;;;;-9.55;100.00;100131.97;5138767;27;20419;-62
2023/01/08 06:57:45;;;;;;;20.20;9.30;;;;;;;-9.50;100.00;100137.44;5138541;28;20062;-61
2023/01/08 07:00:13;;;;;;;18.13;7.75;;;;;;;-9.74;100.00;100135.50;5138379;28;20054;-61
2023/01/08 07:02:39;;;;;;;18.52;7.35;;;;;;;-9.62;100.00;100162.22;5138568;28;20058;-65
2023/01/08 07:05:05;;;;;;;20.73;8.45;;;;;;;-9.45;100.00;100187.28;5138229;28;20484;-59
2023/01/08 07:07:32;;;;;;;20.88;7.65;;;;;;;-9.47;100.00;100165.41;5138243;28;20058;-62
2023/01/08 07:09:59;;;;;;;22.13;8.02;;;;;;;-9.31;100.00;100186.19;5138192;28;20154;-62
2023/01/08 07:12:25;;;;;;;17.17;6.32;;;;;;;-9.17;100.00;100172.88;5138678;28;20141;-60
2023/01/08 07:14:51;;;;;;;15.98;6.53;;;;;;;-9.24;100.00;100162.28;5138023;28;20051;-64
2023/01/08 07:17:18;;;;;;;21.50;8.88;;;;;;;-8.64;100.00;100181.38;5138352;27;20049;-58
2023/01/08 07:19:44;;;;;;;24.13;8.82;;;;;;;-8.72;100.00;100147.09;5138299;28;20412;-63
2023/01/08 07:22:10;;;;;;;19.75;8.02;;;;;;;-8.74;100.00;100109.25;5138439;28;20059;-62
2023/01/08 07:24:36;;;;;;;23.48;9.00;;;;;;;-8.61;100.00;100071.16;5137988;28;20051;-64
2023/01/08 07:27:03;;;;;;;15.43;7.03;;;;;;;-8.90;100.00;100030.06;5138303;27;20062;-63
2023/01/08 07:29:30;;;;;;;20.77;8.38;;;;;;;-8.84;100.00;99986.69;5137980;28;20055;-64
2023/01/08 07:31:56;;;;;;;37.55;12.88;;;;;;;-8.94;100.00;99968.56;5137821;28;20100;-62
2023/01/08 07:34:22;;;;;;;20.02;9.40;;;;;;;-8.74;100.00;99971.06;5137813;28;20047;-64
2023/01/08 07:36:48;;;;;;;37.25;11.55;;;;;;;-8.85;100.00;99930.06;5137792;28;20192;-62
2023/01/08 07:39:15;;;;;;;28.00;10.30;;;;;;;-8.90;100.00;99929.09;5137948;28;20047;-62
2023/01/08 07:41:41;;;;;;;21.05;8.40;;;;;;;-8.84;100.00;99917.59;5137713;28;20051;-61
2023/01/08 07:44:08;;;;;;;17.17;8.27;;;;;;;-8.77;100.00;99903.19;5137252;27;20054;-64
2023/01/08 07:46:34;;;;;;;24.88;9.95;;;;;;;-8.59;100.00;99888.31;5137718;28;20390;-58
2023/01/08 07:49:00;;;;;;;15.52;6.82;;;;;;;-8.90;100.00;99850.19;5138247;28;20090;-65
2023/01/08 07:51:27;;;;;;;16.08;7.82;;;;;;;-9.03;100.00;99863.59;5137482;28;20430;-62
2023/01/08 07:53:55;;;;;;;20.05;8.05;;;;;;;-8.60;100.00;99868.06;5137708;28;20130;-60
2023/01/08 07:56:21;;;;;;;29.23;10.48;;;;;;;-8.44;100.00;99872.78;5137336;27;20054;-63
2023/01/08 07:58:47;;;;;;;23.77;10.27;;;;;;;-8.22;100.00;99816.44;5137590;28;20142;-60
2023/01/08 08:01:15;;;;;;;13.18;7.40;;;;;;;-9.04;100.00;99737.13;5137667;27;20047;-64
2023/01/08 08:03:41;;;;;;;21.20;9.57;;;;;;;-8.33;100.00;99802.03;5137515;28;20163;-60
2023/01/08 08:06:08;;;;;;;13.73;6.88;;;;;;;-8.90;100.00;99778.44;5137497;27;20055;-63
2023/01/08 08:08:35;;;;;;;22.70;8.95;;;;;;;-8.55;100.00;99823.81;5137469;28;20434;-62
2023/01/08 08:11:02;;;;;;;15.65;6.95;;;;;;;-8.70;100.00;99803.97;5137443;28;20137;-57
2023/01/08 08:13:28;;;;;;;28.77;10.60;;;;;;;-8.55;100.00;99815.84;5137370;28;20442;-64
2023/01/08 08:15:54;;;;;;;26.00;8.73;;;;;;;-8.27;100.00;99824.25;5137473;28;20066;-60
2023/01/08 08:18:21;;;;;;;25.85;10.77;;;;;;;-8.26;100.00;99815.25;5137258;28;20057;-64
2023/01/08 08:20:50;;;;;;;20.20;8.60;;;;;;;-8.70;100.00;99796.00;5137586;27;20349;-62
2023/01/08 08:23:17;;;;;;;10.30;5.20;;;;;;;-8.60;100.00;99828.19;5137152;28;20104;-61
2023/01/08 08:25:43;;;;;;;34.03;10.63;;;;;;;-8.59;100.00;99835.16;5136998;28;20061;-63
2023/01/08 08:28:11;;;;;;;26.23;10.18;;;;;;;-8.54;100.00;99853.88;5137222;27;20369;-62
2023/01/08 08:30:38;;;;;;;27.33;8.93;;;;;;;-8.64;100.00;99862.38;5137236;28;20077;-65
2023/01/08 08:33:06;;;;;;;21.65;7.60;;;;;;;-8.66;100.00;99883.06;5137054;28;20187;-62
2023/01/08 08:35:34;;;;;;;25.23;8.45;;;;;;;-8.29;100.00;99917.59;5136769;28;20050;-59
2023/01/08 08:38:00;;;;;;;20.95;8.07;;;;;;;-8.47;100.00;99905.13;5137170;28;20054;-59
2023/01/08 08:40:27;;;;;;;17.83;5.80;;;;;;;-8.27;100.00;99912.03;5136826;28;20051;-61
2023/01/08 08:42:56;;;;;;;22.45;9.95;;;;;;;-8.03;100.00;99900.47;5137126;28;20051;-62
2023/01/08 08:45:22;;;;;;;22.70;8.27;;;;;;;-8.21;100.00;99860.59;5136832;28;20428;-65
2023/01/08 08:47:48;;;;;;;27.13;10.93;;;;;;;-7.90;100.00;99891.50;5137282;28;20398;-60
2023/01/08 08:50:14;;;;;;;22.85;10.27;;;;;;;-8.06;100.00;99855.72;5136783;28;20420;-64
2023/01/08 08:52:43;;;;;;;21.77;8.52;;;;;;;-8.22;100.00;99859.78;5137180;28;20134;-62
2023/01/08 08:55:12;;;;;;;23.80;10.18;;;;;;;-7.94;100.00;99882.34;5137877;27;20315;-59
2023/01/08 08:57:38;;;;;;;21.92;9.05;;;;;;;-7.74;100.00;99850.13;5140534;28;20213;-62
2023/01/08 09:00:05;;;;;;;27.00;9.68;;;;;;;-7.66;100.00;99804.53;5140330;27;20404;-64
2023/01/08 09:02:31;;;;;;;14.70;8.85;;;;;;;-7.91;100.00;99746.16;5140109;28;20047;-61
2023/01/08 09:04:57;;;;;;;19.95;7.88;;;;;;;-7.59;100.00;99744.81;5140455;28;20115;-65
2023/01/08 09:07:24;;;;;;;24.60;9.00;;;;;;;-7.79;100.00;99725.69;5140284;28;20061;-60
2023/01/08 09:09:51;;;;;;;22.90;9.80;;;;;;;-7.49;100.00;99738.09;5140437;28;20316;-64
2023/01/08 09:12:17;;;;;;;25.63;10.05;;;;;;;-7.72;100.00;99697.09;5140071;28;20047;-62
2023/01/08 09:14:43;;;;;;;24.20;9.55;;;;;;;-7.51;100.00;99724.19;5140375;27;20066;-65
2023/01/08 09:17:10;;;;;;;15.35;6.28;;;;;;;-7.97;100.00;99712.47;5139997;28;20055;-64
2023/01/08 09:19:36;;;;;;;28.48;11.07;;;;;;;-7.78;100.00;99793.06;5139809;28;20138;-63
2023/01/08 09:22:02;;;;;;;21.75;9.63;;;;;;;-7.60;100.00;99811.59;5140244;28;20051;-63
2023/01/08 09:24:31;;;;;;;33.53;12.50;;;;;;;-7.40;100.00;99813.91;5139865;28;20055;-62
2023/01/08 09:26:58;;;;;;;37.67;12.43;;;;;;;-7.32;100.00;99791.47;5139666;27;20058;-61
2023/01/08 09:29:24;;;;;;;29.80;10.65;;;;;;;-7.34;100.00;99791.69;5139781;28;20047;-61
2023/01/08 09:31:51;;;;;;;18.52;8.40;;;;;;;-7.68;100.00;99793.28;5140102;28;20057;-63
2023/01/08 09:34:17;;;;;;;22.95;9.30;;;;;;;-7.86;100.00;99818.16;5139997;28;20047;-61
2023/01/08 09:36:44;;;;;;;21.42;7.95;;;;;;;-7.88;100.00;99882.25;5140321;27;20203;-65
2023/01/08 09:39:10;;;;;;;19.08;9.85;;;;;;;-7.97;100.00;99944.00;5139689;28;20129;-61
2023/01/08 09:41:45;;;;;;;28.38;12.00;;;;;;;-7.84;100.00;99989.88;5140276;27;20054;-64
2023/01/08 09:44:17;;;;;;;36.35;13.57;;;;;;;-7.24;100.00;100038.88;5139864;28;20336;-63
2023/01/08 09:46:46;;;;;;;28.55;11.68;;;;;;;-7.28;100.00;100013.75;5140968;28;20047;-61
2023/01/08 09:49:16;;;;;;;28.15;11.02;;;;;;;-7.46;100.00;100001.28;5141112;28;20079;-62
2023/01/08 09:51:45;;;;;;;27.23;11.43;;;;;;;-7.29;100.00;100044.91;5140643;28;20051;-59
2023/01/08 09:54:15;;;;;;;27.73;11.82;;;;;;;-7.40;100.00;100035.00;5140173;27;20089;-61
2023/01/08 09:56:41;;;;;;;27.45;11.35;;;;;;;-7.44;100.00;100057.81;5139298;28;20059;-63
2023/01/08 09:59:12;;;;;;;35.45;13.65;;;;;;;-7.15;100.00;100066.84;5139553;28;20421;-62
2023/01/08 10:01:40;;;;;;;26.85;11.00;;;;;;;-7.66;100.00;100063.63;5139197;28;20139;-62
2023/01/08 10:04:13;;;;;;;23.88;8.45;;;;;;;-7.47;100.00;100103.53;5139556;28;20070;-62
2023/01/08 10:06:39;;;;;;;21.08;7.88;;;;;;;-7.68;100.00;100132.25;5138551;27;20146;-62
2023/01/08 10:09:06;;;;;;;31.98;12.00;;;;;;;-7.46;100.00;100169.91;5139424;28;20130;-61
2023/01/08 10:11:40;;;;;;;21.25;9.73;;;;;;;-7.42;100.00;100184.41;5139058;28;20051;-62
2023/01/08 10:14:20;;;;;;;21.15;7.40;;;;;;;-7.51;100.00;100191.06;5139055;28;20405;-64
2023/01/08 10:16:49;;;;;;;20.27;9.55;;;;;;;-7.42;100.00;100218.22;5139182;28;20057;-65
2023/01/08 10:19:15;;;;;;;21.50;9.57;;;;;;;-6.99;100.00;100236.00;5138926;28;20054;-64
2023/01/08 10:21:41;;;;;;;25.98;9.93;;;;;;;-7.13;100.00;100220.16;5139249;28;20043;-61
2023/01/08 10:24:07;;;;;;;28.42;10.10;;;;;;;-7.09;100.00;100222.38;5138990;28;20051;-65
2023/01/08 10:26:35;;;;;;;22.77;10.25;;;;;;;-7.48;100.00;100211.09;5139259;28;20051;-65
2023/01/08 10:29:06;;;;;;;27.50;11.40;;;;;;;-7.26;100.00;100254.09;5138946;28;20130;-61
2023/01/08 10:31:38;;;;;;;19.48;8.10;;;;;;;-7.54;100.00;100255.41;5139236;28;20089;-66
2023/01/08 10:34:09;;;;;;;33.85;12.52;;;;;;;-7.22;100.00;100279.28;5138715;28;20051;-64
2023/01/08 10:36:41;;;;;;;14.30;7.68;;;;;;;-7.41;100.00;100281.91;5138661;28;20082;-64
2023/01/08 10:39:20;;;;;;;27.45;10.05;;;;;;;-7.13;100.00;100292.09;5138889;27;20058;-61
2023/01/08 10:41:48;;;;;;;26.75;7.53;;;;;;;-7.38;100.00;100288.66;5138762;28;20153;-65
2023/01/08 10:44:17;;;;;;;25.83;9.65;;;;;;;-7.39;100.00;100303.84;5139130;28;20392;-65
2023/01/08 10:46:48;;;;;;;25.63;10.02;;;;;;;-7.20;100.00;100307.31;5138641;28;20055;-59
2023/01/08 10:49:18;;;;;;;26.80;10.23;;;;;;;-7.28;100.00;100310.28;5139123;27;20051;-65
2023/01/08 10:51:49;;;;;;;25.73;10.60;;;;;;;-7.50;100.00;100309.84;5138554;28;20150;-63
2023/01/08 10:54:35;;;;;;;25.05;10.00;;;;;;;-7.34;100.00;100324.47;5138942;28;20090;-60
2023/01/08 10:57:02;;;;;;;18.58;8.25;;;;;;;-7.30;100.00;100328.34;5138760;27;20054;-64
2023/01/08 10:59:29;;;;;;;21.05;8.98;;;;;;;-7.01;100.00;100324.16;5138400;28;20143;-62
2023/01/08 11:02:01;;;;;;;24.08;10.43;;;;;;;-6.79;100.00;100326.41;5138992;28;20055;-65
2023/01/08 11:04:31;;;;;;;22.00;9.93;;;;;;;-6.68;100.00;100318.47;5138310;28;20050;-62
2023/01/08 11:07:00;;;;;;;24.85;9.75;;;;;;;-6.76;100.00;100318.78;5138689;28;20062;-65
2023/01/08 11:09:30;;;;;;;21.23;7.78;;;;;;;-6.88;100.00;100307.22;5120410;28;20048;-63
2023/01/08 11:11:57;;;;;;;22.17;8.85;;;;;;;-6.40;100.00;100306.41;5138302;28;20370;-65
2023/01/08 11:14:26;;;;;;;22.55;9.95;;;;;;;-6.64;100.00;100306.31;5138154;28;20435;-61